createdAt,value
2023-04-30T00:01:59.692Z,13.45
2023-04-30T00:04:26.322Z,13.67
2023-04-30T00:06:52.985Z,13.77
2023-04-30T00:09:19.520Z,13.07
2023-04-30T00:11:46.231Z,14.15
2023-04-30T00:14:12.750Z,12.70
2023-04-30T00:16:40.694Z,13.57
2023-04-30T00:19:07.487Z,13.30
2023-04-30T00:21:34.114Z,13.55
2023-04-30T00:24:00.940Z,12.18
2023-04-30T00:26:27.492Z,14.43
2023-04-30T00:28:54.111Z,12.70
2023-04-30T00:31:20.728Z,12.82
2023-04-30T00:33:48.867Z,13.27
2023-04-30T00:36:15.414Z,13.85
2023-04-30T00:38:42.002Z,13.63
2023-04-30T00:41:08.656Z,13.43
2023-04-30T00:43:35.378Z,13.45
2023-04-30T00:46:01.946Z,14.25
2023-04-30T00:48:28.535Z,14.18
2023-04-30T00:50:56.700Z,13.73
2023-04-30T00:53:23.387Z,17.33
2023-04-30T00:55:49.978Z,15.55
2023-04-30T00:58:16.544Z,13.27
2023-04-30T01:00:43.180Z,13.85
2023-04-30T01:03:10.367Z,13.75
2023-04-30T01:05:37.100Z,11.53
2023-04-30T01:08:05.346Z,13.13
2023-04-30T01:10:41.094Z,13.10
2023-04-30T01:13:15.887Z,12.82
2023-04-30T01:15:46.271Z,13.43
2023-04-30T01:18:18.670Z,12.70
2023-04-30T01:20:50.611Z,13.40
2023-04-30T01:23:35.041Z,12.48
2023-04-30T01:26:13.463Z,11.82
2023-04-30T01:28:43.252Z,13.07
2023-04-30T01:31:13.962Z,13.37
2023-04-30T01:33:40.608Z,13.02
2023-04-30T01:36:29.722Z,13.60
2023-04-30T01:39:19.775Z,12.00
2023-04-30T01:41:54.297Z,12.77
2023-04-30T01:44:38.661Z,13.13
2023-04-30T01:47:12.115Z,13.38
2023-04-30T01:49:48.036Z,12.50
2023-04-30T01:52:20.667Z,12.93
2023-04-30T01:54:53.310Z,11.35
2023-04-30T01:57:27.746Z,12.70
2023-04-30T01:59:56.160Z,11.50
2023-04-30T02:02:22.923Z,12.23
2023-04-30T02:04:49.500Z,11.80
2023-04-30T02:07:27.309Z,11.98
2023-04-30T02:09:54.093Z,11.97
2023-04-30T02:12:20.785Z,12.23
2023-04-30T02:14:47.337Z,12.30
2023-04-30T02:17:15.319Z,12.20
2023-04-30T02:19:42.049Z,12.43
2023-04-30T02:22:08.560Z,12.37
2023-04-30T02:24:35.198Z,12.00
2023-04-30T02:27:01.761Z,12.52
2023-04-30T02:29:28.348Z,11.35
2023-04-30T02:31:57.267Z,12.80
2023-04-30T02:34:25.193Z,12.70
2023-04-30T02:36:51.882Z,12.00
2023-04-30T02:39:18.447Z,12.85
2023-04-30T02:41:45.106Z,12.73
2023-04-30T02:44:11.941Z,13.05
2023-04-30T02:46:38.611Z,12.43
2023-04-30T02:49:05.143Z,12.18
2023-04-30T02:51:33.014Z,12.10
2023-04-30T02:53:59.657Z,10.95
2023-04-30T02:56:26.281Z,12.65
2023-04-30T02:58:52.916Z,11.13
2023-04-30T03:01:19.534Z,12.80
2023-04-30T03:03:46.170Z,12.40
2023-04-30T03:06:12.799Z,12.60
2023-04-30T03:08:40.970Z,12.13
2023-04-30T03:11:07.684Z,11.27
2023-04-30T03:13:34.181Z,10.88
2023-04-30T03:16:01.725Z,11.52
2023-04-30T03:18:28.729Z,11.68
2023-04-30T03:20:55.390Z,11.57
2023-04-30T03:23:21.948Z,12.03
2023-04-30T03:25:49.946Z,12.70
2023-04-30T03:28:16.513Z,12.38
2023-04-30T03:30:43.213Z,12.75
2023-04-30T03:33:10.009Z,12.85
2023-04-30T03:35:36.616Z,11.77
2023-04-30T03:38:03.464Z,12.13
2023-04-30T03:40:30.030Z,12.63
2023-04-30T03:42:57.999Z,12.05
2023-04-30T03:45:24.661Z,11.88
2023-04-30T03:47:51.908Z,12.00
2023-04-30T03:50:18.863Z,11.88
2023-04-30T03:52:45.772Z,12.02
2023-04-30T03:55:12.780Z,11.27
2023-04-30T03:57:39.671Z,12.32
2023-04-30T04:00:09.327Z,11.70
2023-04-30T04:02:36.303Z,11.43
2023-04-30T04:05:03.352Z,12.15
2023-04-30T04:07:30.102Z,12.55
2023-04-30T04:09:56.728Z,12.10
2023-04-30T04:12:23.292Z,11.33
2023-04-30T04:14:49.821Z,11.70
2023-04-30T04:17:17.682Z,11.88
2023-04-30T04:19:44.450Z,11.75
2023-04-30T04:22:11.181Z,11.90
2023-04-30T04:24:37.693Z,11.73
2023-04-30T04:27:04.420Z,12.38
2023-04-30T04:29:31.329Z,13.35
2023-04-30T04:31:58.163Z,14.00
2023-04-30T04:34:26.119Z,13.90
2023-04-30T04:36:52.714Z,13.07
2023-04-30T04:39:19.299Z,13.20
2023-04-30T04:41:45.882Z,14.05
2023-04-30T04:44:12.603Z,13.00
2023-04-30T04:46:39.172Z,13.30
2023-04-30T04:49:05.896Z,13.87
2023-04-30T04:51:33.800Z,13.55
2023-04-30T04:54:00.459Z,12.48
2023-04-30T04:56:27.115Z,13.93
2023-04-30T04:58:53.673Z,12.98
2023-04-30T05:01:20.244Z,12.17
2023-04-30T05:03:46.911Z,13.93
2023-04-30T05:06:13.562Z,15.15
2023-04-30T05:08:41.482Z,13.40
2023-04-30T05:11:07.983Z,13.77
2023-04-30T05:13:34.536Z,12.90
2023-04-30T05:16:01.105Z,14.07
2023-04-30T05:18:27.835Z,14.48
2023-04-30T05:20:54.373Z,14.55
2023-04-30T05:23:20.975Z,13.65
2023-04-30T05:25:52.858Z,12.33
2023-04-30T05:28:19.565Z,12.65
2023-04-30T05:30:46.119Z,14.20
2023-04-30T05:33:12.682Z,13.57
2023-04-30T05:35:39.404Z,14.05
2023-04-30T05:38:06.059Z,12.73
2023-04-30T05:40:32.660Z,13.57
2023-04-30T05:43:00.549Z,13.60
2023-04-30T05:45:27.159Z,13.50
2023-04-30T05:47:53.739Z,15.43
2023-04-30T05:50:20.376Z,13.87
2023-04-30T05:52:46.942Z,12.00
2023-04-30T05:55:13.686Z,13.70
2023-04-30T05:57:40.234Z,12.82
2023-04-30T06:00:09.601Z,13.98
2023-04-30T06:02:36.321Z,13.33
2023-04-30T06:05:03.365Z,13.13
2023-04-30T06:07:29.982Z,13.95
2023-04-30T06:09:56.822Z,12.75
2023-04-30T06:12:23.643Z,14.00
2023-04-30T06:14:50.517Z,12.83
2023-04-30T06:17:18.529Z,12.27
2023-04-30T06:19:45.082Z,13.70
2023-04-30T06:22:11.794Z,13.88
2023-04-30T06:24:38.313Z,13.60
2023-04-30T06:27:04.833Z,13.53
2023-04-30T06:29:31.406Z,13.60
2023-04-30T06:31:58.148Z,13.10
2023-04-30T06:34:26.311Z,12.18
2023-04-30T06:36:52.901Z,13.50
2023-04-30T06:39:19.491Z,12.37
2023-04-30T06:41:46.221Z,12.05
2023-04-30T06:44:12.928Z,12.18
2023-04-30T06:46:39.585Z,11.82
2023-04-30T06:49:06.199Z,11.40
2023-04-30T06:51:34.117Z,11.40
2023-04-30T06:54:00.673Z,11.40
2023-04-30T06:56:27.290Z,11.35
2023-04-30T06:58:53.855Z,10.60
2023-04-30T07:01:20.452Z,10.82
2023-04-30T07:03:47.304Z,9.73
2023-04-30T07:06:14.007Z,9.27
2023-04-30T07:08:41.914Z,9.10
2023-04-30T07:11:08.418Z,8.85
2023-04-30T07:13:35.013Z,7.93
2023-04-30T07:16:01.726Z,7.87
2023-04-30T07:18:28.391Z,7.13
2023-04-30T07:20:55.296Z,6.90
2023-04-30T07:23:21.954Z,7.38
2023-04-30T07:25:50.021Z,6.10
2023-04-30T07:28:16.589Z,6.97
2023-04-30T07:30:43.136Z,6.45
2023-04-30T07:33:09.766Z,6.60
2023-04-30T07:35:36.383Z,6.78
2023-04-30T07:38:02.963Z,6.88
2023-04-30T07:43:02.578Z,6.35
2023-04-30T07:45:29.312Z,6.47
2023-04-30T07:47:55.931Z,6.22
2023-04-30T07:50:22.582Z,6.32
2023-04-30T07:52:49.214Z,5.60
2023-04-30T07:55:15.945Z,5.68
2023-04-30T07:57:42.524Z,5.25
2023-04-30T08:00:11.333Z,5.50
2023-04-30T08:02:38.504Z,5.70
2023-04-30T08:05:05.699Z,5.73
2023-04-30T08:07:32.212Z,4.72
2023-04-30T08:09:58.820Z,4.45
2023-04-30T08:12:25.429Z,4.68
2023-04-30T08:14:59.777Z,4.72
2023-04-30T08:17:27.742Z,4.83
2023-04-30T08:19:54.564Z,5.03
2023-04-30T08:22:21.451Z,4.68
2023-04-30T08:24:48.181Z,5.05
2023-04-30T08:27:14.947Z,4.78
2023-04-30T08:29:41.692Z,4.40
2023-04-30T08:32:08.518Z,4.65
2023-04-30T08:34:36.712Z,4.60
2023-04-30T08:37:03.489Z,4.47
2023-04-30T08:39:30.021Z,4.85
2023-04-30T08:41:57.484Z,4.50
2023-04-30T08:44:25.479Z,4.47
2023-04-30T08:46:54.272Z,4.35
2023-04-30T08:49:22.832Z,4.30
2023-04-30T08:51:52.853Z,4.38
2023-04-30T08:54:19.492Z,3.67
2023-04-30T08:56:46.487Z,4.20
2023-04-30T08:59:13.450Z,4.18
2023-04-30T09:01:41.435Z,4.03
2023-04-30T09:04:08.449Z,3.83
2023-04-30T09:06:35.368Z,3.83
2023-04-30T09:09:11.070Z,4.35
2023-04-30T09:11:37.636Z,4.20
2023-04-30T09:14:04.607Z,4.78
2023-04-30T09:16:45.692Z,4.50
2023-04-30T09:22:20.660Z,4.65
2023-04-30T09:24:51.170Z,4.70
2023-04-30T09:27:19.104Z,5.00
2023-04-30T09:29:46.011Z,4.78
2023-04-30T09:32:12.771Z,4.80
2023-04-30T09:34:39.916Z,5.18
2023-04-30T09:37:06.500Z,4.65
2023-04-30T09:39:33.788Z,3.83
2023-04-30T09:42:11.251Z,3.97
2023-04-30T09:44:39.230Z,4.27
2023-04-30T09:47:11.147Z,4.10
2023-04-30T09:49:38.200Z,3.70
2023-04-30T09:52:05.302Z,4.30
2023-04-30T09:54:32.512Z,3.17
2023-04-30T09:57:00.557Z,3.10
2023-04-30T09:59:30.571Z,2.90
2023-04-30T10:01:59.213Z,2.70
2023-04-30T10:04:27.612Z,1.90
2023-04-30T10:06:57.525Z,1.70
2023-04-30T10:09:28.832Z,3.20
2023-04-30T10:11:57.377Z,2.40
2023-04-30T10:14:27.712Z,2.40
2023-04-30T10:17:00.633Z,2.10
2023-04-30T10:19:30.838Z,2.03
2023-04-30T10:21:58.083Z,1.70
2023-04-30T10:24:24.938Z,2.10
2023-04-30T10:26:51.521Z,2.40
2023-04-30T10:29:18.902Z,2.33
2023-04-30T10:31:48.106Z,2.28
2023-04-30T10:34:22.476Z,1.90
2023-04-30T10:36:54.776Z,1.98
2023-04-30T10:39:22.805Z,2.20
2023-04-30T10:41:49.621Z,2.10
2023-04-30T10:44:22.200Z,2.20
2023-04-30T10:46:48.889Z,2.00
2023-04-30T10:49:25.025Z,2.28
2023-04-30T10:51:51.890Z,2.17
2023-04-30T10:54:25.273Z,1.80
2023-04-30T10:56:51.869Z,2.20
2023-04-30T10:59:18.625Z,2.10
2023-04-30T11:01:59.139Z,1.90
2023-04-30T11:04:27.999Z,2.15
2023-04-30T11:07:09.573Z,2.13
2023-04-30T11:09:41.351Z,2.70
2023-04-30T11:12:13.174Z,2.00
2023-04-30T11:14:44.357Z,2.00
2023-04-30T11:17:13.066Z,2.30
2023-04-30T11:19:59.533Z,2.20
2023-04-30T11:22:27.188Z,2.40
2023-04-30T11:25:00.770Z,2.40
2023-04-30T11:27:28.755Z,2.40
2023-04-30T11:29:56.832Z,8.30
2023-04-30T11:32:25.705Z,3.75
2023-04-30T11:34:52.575Z,2.17
2023-04-30T11:37:25.023Z,1.83
2023-04-30T11:39:52.332Z,1.83
2023-04-30T11:42:19.636Z,1.70
2023-04-30T11:44:46.312Z,1.60
2023-04-30T11:47:13.680Z,1.80
2023-04-30T11:49:40.345Z,1.90
2023-04-30T11:52:07.070Z,1.40
2023-04-30T11:54:36.500Z,1.63
2023-04-30T11:57:03.165Z,1.70
2023-04-30T11:59:30.221Z,1.60
2023-04-30T12:01:57.001Z,1.30
2023-04-30T12:04:23.954Z,1.40
2023-04-30T12:06:50.776Z,1.65
2023-04-30T12:09:17.380Z,1.45
2023-04-30T12:11:47.603Z,1.48
2023-04-30T12:14:14.176Z,1.30
2023-04-30T12:16:42.981Z,1.75
2023-04-30T12:19:09.706Z,1.90
2023-04-30T12:21:37.157Z,1.60
2023-04-30T12:24:04.391Z,1.80
2023-04-30T12:26:35.151Z,1.60
2023-04-30T12:29:05.074Z,1.10
2023-04-30T12:31:32.351Z,1.30
2023-04-30T12:34:03.737Z,1.40
2023-04-30T12:36:31.360Z,1.33
2023-04-30T12:39:02.539Z,0.90
2023-04-30T12:41:29.635Z,1.15
2023-04-30T12:44:16.018Z,1.20
2023-04-30T12:46:42.738Z,1.30
2023-04-30T12:49:09.418Z,1.35
2023-04-30T12:51:36.315Z,0.90
2023-04-30T12:54:02.911Z,1.38
2023-04-30T12:56:29.397Z,1.17
2023-04-30T12:58:55.948Z,1.10
2023-04-30T13:01:23.963Z,1.00
2023-04-30T13:03:50.936Z,1.10
2023-04-30T13:06:18.010Z,1.00
2023-04-30T13:08:57.246Z,1.17
2023-04-30T13:11:25.544Z,1.10
2023-04-30T13:13:52.056Z,0.80
2023-04-30T13:16:18.661Z,0.93
2023-04-30T13:18:46.573Z,1.13
2023-04-30T13:21:13.064Z,0.93
2023-04-30T13:23:51.300Z,1.00
2023-04-30T13:26:19.924Z,1.13
2023-04-30T13:28:46.471Z,0.83
2023-04-30T13:31:13.074Z,0.93
2023-04-30T13:33:39.616Z,0.95
2023-04-30T13:36:07.836Z,1.20
2023-04-30T13:38:34.358Z,0.90
2023-04-30T13:41:01.065Z,0.80
2023-04-30T13:43:27.742Z,1.05
2023-04-30T13:45:54.324Z,0.80
2023-04-30T13:48:20.941Z,0.98
2023-04-30T13:50:47.492Z,1.10
2023-04-30T13:53:15.438Z,1.00
2023-04-30T13:55:42.051Z,1.00
2023-04-30T13:58:08.687Z,0.93
2023-04-30T14:00:35.290Z,0.85
2023-04-30T14:03:01.999Z,0.98
2023-04-30T14:05:28.661Z,0.80
2023-04-30T14:07:55.222Z,0.70
2023-04-30T14:10:23.111Z,0.95
2023-04-30T14:12:49.654Z,0.90
2023-04-30T14:15:16.324Z,1.00
2023-04-30T14:17:42.935Z,0.80
2023-04-30T14:20:11.000Z,0.90
2023-04-30T14:22:37.581Z,1.20
2023-04-30T14:25:04.968Z,0.70
2023-04-30T14:27:32.854Z,0.80
2023-04-30T14:29:59.542Z,1.10
2023-04-30T14:32:26.978Z,1.08
2023-04-30T14:34:53.763Z,1.10
2023-04-30T14:37:20.347Z,0.75
2023-04-30T14:39:46.883Z,0.90
2023-04-30T14:42:13.496Z,0.80
2023-04-30T14:44:41.509Z,0.85
2023-04-30T14:47:08.136Z,0.80
2023-04-30T14:49:34.683Z,0.80
2023-04-30T14:52:01.313Z,0.70
2023-04-30T14:54:27.932Z,0.93
2023-04-30T14:56:54.540Z,0.80
2023-04-30T14:59:21.084Z,0.90
2023-04-30T15:01:49.126Z,0.82
2023-04-30T15:04:15.794Z,1.00
2023-04-30T15:06:42.515Z,0.80
2023-04-30T15:09:09.281Z,0.77
2023-04-30T15:11:35.838Z,0.90
2023-04-30T15:14:02.427Z,0.82
2023-04-30T15:16:29.673Z,0.70
2023-04-30T15:18:57.927Z,0.60
2023-04-30T15:21:25.606Z,0.60
2023-04-30T15:23:52.223Z,0.75
2023-04-30T15:26:18.855Z,0.95
2023-04-30T15:28:45.440Z,1.10
2023-04-30T15:31:12.026Z,0.90
2023-04-30T15:33:38.890Z,0.88
2023-04-30T15:36:07.279Z,0.80
2023-04-30T15:38:34.251Z,0.90
2023-04-30T15:41:00.868Z,0.93
2023-04-30T15:43:27.653Z,0.90
2023-04-30T15:45:54.196Z,1.10
2023-04-30T15:48:20.791Z,1.17
2023-04-30T15:50:47.350Z,1.10
2023-04-30T15:53:15.300Z,1.70
2023-04-30T15:55:42.249Z,1.10
2023-04-30T15:58:08.794Z,1.20
2023-04-30T16:00:35.294Z,1.10
2023-04-30T16:03:02.076Z,1.05
2023-04-30T16:05:28.702Z,1.00
2023-04-30T16:07:55.374Z,1.20
2023-04-30T16:10:23.401Z,1.33
2023-04-30T16:12:49.946Z,1.02
2023-04-30T16:15:16.619Z,1.10
2023-04-30T16:17:43.267Z,0.88
2023-04-30T16:20:11.901Z,0.97
2023-04-30T16:22:38.585Z,1.17
2023-04-30T16:25:06.053Z,1.38
2023-04-30T16:27:35.748Z,1.30
2023-04-30T16:30:04.323Z,1.10
2023-04-30T16:32:31.175Z,1.10
2023-04-30T16:34:57.881Z,1.10
2023-04-30T16:37:24.484Z,1.30
2023-04-30T16:39:51.074Z,1.20
2023-04-30T16:42:17.737Z,1.40
2023-04-30T16:44:45.683Z,1.10
2023-04-30T16:47:12.324Z,1.10
2023-04-30T16:49:39.042Z,0.93
2023-04-30T16:52:05.617Z,1.00
2023-04-30T16:54:32.172Z,1.20
2023-04-30T16:56:58.701Z,0.93
2023-04-30T16:59:25.212Z,1.30
2023-04-30T17:01:53.180Z,0.90
2023-04-30T17:04:19.740Z,1.20
2023-04-30T17:06:46.443Z,1.00
2023-04-30T17:09:13.149Z,0.90
2023-04-30T17:11:39.760Z,0.80
2023-04-30T17:14:06.418Z,1.30
2023-04-30T17:16:33.086Z,1.02
2023-04-30T17:19:00.918Z,1.20
2023-04-30T17:21:27.443Z,1.00
2023-04-30T17:23:53.985Z,1.02
2023-04-30T17:26:20.520Z,1.05
2023-04-30T17:28:47.150Z,1.10
2023-04-30T17:31:13.816Z,1.02
2023-04-30T17:33:41.354Z,1.00
2023-04-30T17:36:09.656Z,1.13
2023-04-30T17:38:36.465Z,1.17
2023-04-30T17:41:03.041Z,1.05
2023-04-30T17:43:29.802Z,0.90
2023-04-30T17:45:56.394Z,0.97
2023-04-30T17:48:23.021Z,0.88
2023-04-30T17:50:49.646Z,0.90
2023-04-30T17:53:17.519Z,1.05
2023-04-30T17:55:44.008Z,0.90
2023-04-30T17:58:10.730Z,1.00
2023-04-30T18:00:38.856Z,1.20
2023-04-30T18:03:05.513Z,0.98
2023-04-30T18:05:34.817Z,1.10
2023-04-30T18:08:02.132Z,1.35
2023-04-30T18:10:30.065Z,2.10
2023-04-30T18:12:57.950Z,2.22
2023-04-30T18:15:24.615Z,2.17
2023-04-30T18:17:51.171Z,2.10
2023-04-30T18:20:17.992Z,2.50
2023-04-30T18:22:44.772Z,2.43
2023-04-30T18:25:12.577Z,2.67
2023-04-30T18:27:40.524Z,2.67
2023-04-30T18:30:08.173Z,2.65
2023-04-30T18:32:34.885Z,3.30
2023-04-30T18:35:01.446Z,2.70
2023-04-30T18:37:28.041Z,2.67
2023-04-30T18:39:54.772Z,2.70
2023-04-30T18:42:22.196Z,2.58
2023-04-30T18:44:50.253Z,2.78
2023-04-30T18:47:16.822Z,2.60
2023-04-30T18:49:43.755Z,2.55
2023-04-30T18:52:10.302Z,2.95
2023-04-30T18:54:37.012Z,3.30
2023-04-30T18:57:03.735Z,3.38
2023-04-30T18:59:30.243Z,3.17
2023-04-30T19:01:58.190Z,3.53
2023-04-30T19:04:24.784Z,3.30
2023-04-30T19:06:51.382Z,3.05
2023-04-30T19:09:17.946Z,3.58
2023-04-30T19:11:44.537Z,3.40
2023-04-30T19:14:11.237Z,3.25
2023-04-30T19:16:37.825Z,3.20
2023-04-30T19:19:05.847Z,3.20
2023-04-30T19:21:32.446Z,3.78
2023-04-30T19:23:59.927Z,2.97
2023-04-30T19:26:26.656Z,2.88
2023-04-30T19:28:53.229Z,3.30
2023-04-30T19:31:19.842Z,3.70
2023-04-30T19:33:46.596Z,3.53
2023-04-30T19:36:14.614Z,3.80
2023-04-30T19:38:41.182Z,3.33
2023-04-30T19:41:07.745Z,3.17
2023-04-30T19:43:34.342Z,3.17
2023-04-30T19:46:00.949Z,3.00
2023-04-30T19:48:27.661Z,3.10
2023-04-30T19:50:54.448Z,2.70
2023-04-30T19:53:22.418Z,2.75
2023-04-30T19:55:49.032Z,2.53
2023-04-30T19:58:15.624Z,3.33
2023-04-30T20:00:43.882Z,2.70
2023-04-30T20:03:10.749Z,2.47
2023-04-30T20:05:38.033Z,2.63
2023-04-30T20:08:06.567Z,2.60
2023-04-30T20:10:37.055Z,2.67
2023-04-30T20:13:04.918Z,2.60
2023-04-30T20:15:31.656Z,2.90
2023-04-30T20:17:58.435Z,2.28
2023-04-30T20:20:25.291Z,2.50
2023-04-30T20:22:53.528Z,2.78
2023-04-30T20:25:21.233Z,2.73
2023-04-30T20:27:49.421Z,2.40
2023-04-30T20:30:16.472Z,2.30
2023-04-30T20:32:43.084Z,2.50
2023-04-30T20:35:10.204Z,2.60
2023-04-30T20:37:37.464Z,2.53
2023-04-30T20:40:04.625Z,2.45
2023-04-30T20:42:31.353Z,2.58
2023-04-30T20:44:59.419Z,2.42
2023-04-30T20:47:25.955Z,2.53
2023-04-30T20:49:52.479Z,2.23
2023-04-30T20:52:19.008Z,2.20
2023-04-30T20:54:45.914Z,2.28
2023-04-30T20:57:12.470Z,2.42
2023-04-30T20:59:39.022Z,2.20
2023-04-30T21:02:07.588Z,2.97
2023-04-30T21:04:34.173Z,2.35
2023-04-30T21:07:00.915Z,2.30
2023-04-30T21:09:27.622Z,2.28
2023-04-30T21:11:54.229Z,2.50
2023-04-30T21:14:20.734Z,2.30
2023-04-30T21:16:47.356Z,1.98
2023-04-30T21:19:15.239Z,2.30
2023-04-30T21:21:41.974Z,2.20
2023-04-30T21:24:08.523Z,2.05
2023-04-30T21:26:35.226Z,2.50
2023-04-30T21:29:02.984Z,2.40
2023-04-30T21:31:29.934Z,2.45
2023-04-30T21:33:56.558Z,2.38
2023-04-30T21:36:24.613Z,2.25
2023-04-30T21:38:51.349Z,2.13
2023-04-30T21:41:17.926Z,2.40
2023-04-30T21:43:44.827Z,2.70
2023-04-30T21:46:11.456Z,2.40
2023-04-30T21:48:38.009Z,2.47
2023-04-30T21:51:10.973Z,2.40
2023-04-30T21:53:38.935Z,2.00
2023-04-30T21:56:06.230Z,2.03
2023-04-30T21:58:32.748Z,2.00
2023-04-30T22:00:59.320Z,2.30
2023-04-30T22:03:26.096Z,1.80
2023-04-30T22:05:52.938Z,2.00
2023-04-30T22:08:19.437Z,2.22
2023-04-30T22:10:47.432Z,2.05
2023-04-30T22:13:14.056Z,2.00
2023-04-30T22:15:47.580Z,1.90
2023-04-30T22:18:14.842Z,1.85
2023-04-30T22:20:41.382Z,1.85
2023-04-30T22:23:08.148Z,1.73
2023-04-30T22:25:34.739Z,1.90
2023-04-30T22:28:02.667Z,2.20
2023-04-30T22:30:29.199Z,1.65
2023-04-30T22:32:56.009Z,2.08
2023-04-30T22:35:23.254Z,1.90
2023-04-30T22:37:49.991Z,2.00
2023-04-30T22:40:16.717Z,1.90
2023-04-30T22:42:43.650Z,1.90
2023-04-30T22:45:12.408Z,1.98
2023-04-30T22:47:40.412Z,1.80
2023-04-30T22:50:08.322Z,1.70
2023-04-30T22:52:35.021Z,1.60
2023-04-30T22:55:02.263Z,1.73
2023-04-30T22:57:28.873Z,1.85
2023-04-30T22:59:55.510Z,1.83
2023-04-30T23:02:23.502Z,1.67
2023-04-30T23:04:50.070Z,1.70
2023-04-30T23:07:16.602Z,1.65
2023-04-30T23:09:43.198Z,1.77
2023-04-30T23:12:09.707Z,1.80
2023-04-30T23:14:36.434Z,2.00
2023-04-30T23:17:03.092Z,1.80
2023-04-30T23:19:31.293Z,2.10
2023-04-30T23:21:57.803Z,2.03
2023-04-30T23:24:24.341Z,2.00
2023-04-30T23:26:51.150Z,2.10
2023-04-30T23:29:18.281Z,2.23
2023-04-30T23:31:44.865Z,2.33
2023-04-30T23:34:11.549Z,2.55
2023-04-30T23:36:39.480Z,2.80
2023-04-30T23:39:06.069Z,2.30
2023-04-30T23:41:32.797Z,2.60
2023-04-30T23:43:59.312Z,2.55
2023-04-30T23:46:26.037Z,2.78
2023-04-30T23:48:52.631Z,2.45
2023-04-30T23:51:19.215Z,2.58
2023-04-30T23:53:47.072Z,2.80
2023-04-30T23:56:13.615Z,2.83
2023-04-30T23:58:40.152Z,2.83
